All Spectrum Aviation - Van Nuys Airport - KVNY

HOME

Condor Squadron KVNY Webcam

Visit our Electronics Store

Condor Squadron Webcam - Van Nuys Airport - KVNY
Picture taken: Wed, 08 Apr 2020 02:28:02 -0700
YouTube Channel!    Latest Timelapse Movie    Full Size Image    Regular Size Image    

2020/04/08 08:51 KVNY 080851Z AUTO 02004KT 10SM BKN013 OVC019 10/08 A2999 RMK AO2 SLP152 60002 T01000078 58003

HOME

Condor Squadron KVNY Webcam

Visit our Electronics Store